Time;durP1;ratioP1;P1;durP2;ratioP2;P2;SDS_P1;SDS_P2;PMS_P1;PMS_P2;Temp;Humidity;BMP_temperature;BMP_pressure;BME280_temperature;BME280_humidity;BME280_pressure;Samples;Min_cycle;Max_cycle;Signal;HPM_P1;HPM_P2
2022/01/21 00:01:26;;;;;;;;;8.75;5.50;;;;;6.08;63.85;103299.44;5079978;28;45385;-49
2022/01/21 00:03:52;;;;;;;;;15.50;6.50;;;;;6.07;63.89;103292.41;5079942;28;45334;-48
2022/01/21 00:06:17;;;;;;;;;7.50;7.50;;;;;6.03;63.71;103285.53;5079943;27;45207;-51
2022/01/21 00:08:45;;;;;;;;;10.75;7.25;;;;;5.97;64.16;103289.22;5079769;28;45916;-58
2022/01/21 00:11:12;;;;;;;;;12.00;10.00;;;;;5.83;64.19;103275.63;5079725;28;45556;-51
2022/01/21 00:13:38;;;;;;;;;19.00;8.00;;;;;5.88;64.04;103289.53;5079930;28;45364;-49
2022/01/21 00:16:12;;;;;;;;;13.50;11.00;;;;;5.89;64.54;103296.53;5079757;28;45453;-57
2022/01/21 00:18:39;;;;;;;;;8.25;8.00;;;;;5.85;64.58;103272.00;5079305;28;45453;-53
2022/01/21 00:32:05;;;;;;;;;11.00;9.25;;;;;5.65;65.23;103254.22;5079553;28;45307;-61
2022/01/21 00:34:30;;;;;;;;;17.25;10.75;;;;;5.68;64.77;103266.44;5079241;28;45331;-60
2022/01/21 00:36:55;;;;;;;;;9.00;9.00;;;;;5.64;65.58;103275.38;5079826;28;45472;-59
2022/01/21 00:39:24;;;;;;;;;11.00;7.25;;;;;5.58;64.67;103268.53;5079126;28;45493;-60
2022/01/21 00:44:39;;;;;;;;;7.00;7.00;;;;;5.48;65.24;103261.88;4996633;28;45481;-63
2022/01/21 00:47:05;;;;;;;;;8.75;7.00;;;;;5.59;65.79;103266.75;4996435;28;45493;-61
2022/01/21 00:49:31;;;;;;;;;9.25;6.00;;;;;5.62;65.47;103256.09;4996549;28;47016;-55
2022/01/21 00:51:56;;;;;;;;;10.00;5.25;;;;;5.63;65.38;103263.09;4996581;28;45863;-62
2022/01/21 00:54:21;;;;;;;;;7.75;4.00;;;;;5.65;65.99;103274.50;4996897;28;45475;-61
2022/01/21 00:56:47;;;;;;;;;8.75;5.75;;;;;5.67;65.08;103272.66;4996783;28;45543;-58
2022/01/21 00:59:12;;;;;;;;;11.75;7.00;;;;;5.70;65.47;103270.75;4996766;28;45426;-59
2022/01/21 01:01:38;;;;;;;;;14.50;7.25;;;;;5.71;65.07;103263.69;4996526;28;45294;-55
2022/01/21 01:04:04;;;;;;;;;10.50;5.75;;;;;5.73;65.77;103273.31;4996560;28;45536;-62
2022/01/21 01:06:29;;;;;;;;;8.00;6.00;;;;;5.74;65.77;103280.31;4996965;28;45447;-63
2022/01/21 01:08:55;;;;;;;;;5.75;2.00;;;;;5.75;65.33;103271.47;4996341;28;47077;-58
2022/01/21 01:20:02;;;;;;;;;6.50;5.00;;;;;5.68;65.17;103267.28;4995921;28;45786;-50
2022/01/21 01:23:09;;;;;;;;;10.25;7.50;;;;;5.61;65.33;103271.09;5064501;28;45361;-50
2022/01/21 01:28:35;;;;;;;;;6.50;5.75;;;;;5.45;65.74;103249.63;4996363;28;45335;-52
2022/01/21 01:31:00;;;;;;;;;10.00;7.00;;;;;5.43;66.04;103245.28;4996003;28;45382;-52
2022/01/21 01:33:34;;;;;;;;;6.50;3.00;;;;;5.46;65.82;103264.53;4996106;28;45635;-59
2022/01/21 01:35:59;;;;;;;;;8.00;6.50;;;;;5.47;65.89;103268.03;4996080;28;45363;-47
2022/01/21 01:41:13;;;;;;;;;8.50;5.00;;;;;5.46;66.65;103263.69;4995619;28;45798;-48
2022/01/21 01:51:52;;;;;;;;;8.00;4.50;;;;;5.35;66.55;103260.53;4995603;28;45464;-52
2022/01/21 01:54:18;;;;;;;;;11.25;7.25;;;;;5.37;67.02;103270.13;4995298;28;45457;-54
2022/01/21 01:56:48;;;;;;;;;15.00;6.25;;;;;5.32;66.76;103279.13;4995604;28;45428;-52
2022/01/21 01:59:14;;;;;;;;;5.00;5.00;;;;;5.29;66.32;103276.56;4994578;28;45466;-57
2022/01/21 02:01:39;;;;;;;;;7.75;6.00;;;;;5.23;66.77;103286.44;5005526;28;45361;-49
2022/01/21 02:04:05;;;;;;;;;10.00;6.25;;;;;5.22;67.14;103286.47;5077557;27;45286;-58
2022/01/21 02:06:31;;;;;;;;;3.50;2.50;;;;;5.19;66.80;103284.81;5078161;27;45338;-53
2022/01/21 02:08:58;;;;;;;;;9.00;8.00;;;;;5.17;67.22;103283.13;5078026;27;45283;-49
2022/01/21 02:11:24;;;;;;;;;11.75;7.25;;;;;5.14;66.66;103273.53;5077576;27;46123;-56
2022/01/21 02:13:56;;;;;;;;;14.00;8.00;;;;;5.13;66.93;103278.84;5077618;27;45327;-49
2022/01/21 02:21:41;;;;;;;;;8.00;5.00;;;;;5.05;67.04;103279.09;5077434;28;45410;-53
2022/01/21 02:24:09;;;;;;;;;5.50;5.00;;;;;5.03;67.08;103282.69;5077489;27;45287;-47
2022/01/21 02:26:35;;;;;;;;;14.25;4.00;;;;;4.97;67.95;103282.00;5077416;27;45346;-57
2022/01/21 02:29:02;;;;;;;;;8.50;7.00;;;;;4.96;67.19;103282.88;5077905;27;45363;-53
2022/01/21 02:31:29;;;;;;;;;11.25;5.00;;;;;4.90;68.14;103280.44;5077361;27;47112;-50
2022/01/21 02:33:54;;;;;;;;;6.00;3.50;;;;;4.93;67.88;103280.34;5077368;28;45180;-58
2022/01/21 02:36:20;;;;;;;;;8.50;4.75;;;;;4.91;67.83;103276.88;5077417;28;45326;-51
2022/01/21 02:38:45;;;;;;;;;12.00;7.00;;;;;4.92;67.44;103277.75;5077498;27;45289;-50
2022/01/21 02:41:11;;;;;;;;;6.50;6.50;;;;;4.90;67.48;103276.94;5077165;27;46156;-58
2022/01/21 02:43:36;;;;;;;;;6.50;5.00;;;;;4.88;68.22;103276.13;5077350;27;45330;-50
2022/01/21 02:46:06;;;;;;;;;7.75;7.00;;;;;4.86;68.30;103278.81;5077461;28;45378;-49
2022/01/21 02:48:36;;;;;;;;;9.50;6.50;;;;;4.84;67.71;103274.47;5077683;27;45498;-54
2022/01/21 02:51:02;;;;;;;;;4.50;4.00;;;;;4.82;67.75;103276.31;5076796;27;46229;-51
2022/01/21 02:54:03;;;;;;;;;9.00;4.25;;;;;4.69;68.52;103260.00;5076910;27;45549;-50
2022/01/21 02:56:17;;;;;;;;;7.75;3.50;;;;;4.78;68.00;103272.06;5076932;27;45287;-55
2022/01/21 02:58:47;;;;;;;;;6.75;6.25;;;;;4.75;68.48;103281.75;5077477;27;45336;-48
2022/01/21 03:01:14;;;;;;;;;6.75;6.75;;;;;4.72;68.33;103276.59;5076959;27;46351;-49
2022/01/21 03:03:41;;;;;;;;;7.00;7.00;;;;;4.73;68.16;103280.09;5077136;27;45355;-52
2022/01/21 03:06:06;;;;;;;;;5.00;4.75;;;;;4.72;67.90;103283.66;5077166;27;45365;-57
2022/01/21 03:08:32;;;;;;;;;14.00;10.00;;;;;4.67;68.23;103270.59;5077468;27;45232;-49
2022/01/21 03:10:57;;;;;;;;;3.50;3.25;;;;;4.68;68.71;103285.53;5079500;28;46331;-48
2022/01/21 03:13:23;;;;;;;;;7.50;6.50;;;;;4.67;69.07;103280.28;5080815;27;45532;-47
2022/01/21 03:15:50;;;;;;;;;6.00;4.25;;;;;4.65;69.16;103285.59;5079760;27;45420;-47
2022/01/21 03:18:16;;;;;;;;;10.50;5.50;;;;;4.64;68.40;103283.88;5080978;28;47177;-48
2022/01/21 03:20:41;;;;;;;;;4.75;4.75;;;;;4.63;68.54;103279.50;5080451;27;46370;-45
2022/01/21 03:23:08;;;;;;;;;11.00;4.50;;;;;4.62;68.13;103279.56;5081048;27;45577;-46
2022/01/21 03:25:34;;;;;;;;;12.50;5.50;;;;;4.60;69.13;103282.25;5081128;27;45366;-46
2022/01/21 03:27:59;;;;;;;;;7.75;5.00;;;;;4.60;68.95;103287.53;5081108;27;45263;-48
2022/01/21 03:30:25;;;;;;;;;7.00;4.00;;;;;4.58;68.61;103276.13;5080742;27;45839;-46
2022/01/21 03:32:50;;;;;;;;;11.25;7.00;;;;;4.57;69.40;103287.59;5080674;27;45276;-51
2022/01/21 03:35:15;;;;;;;;;10.00;9.50;;;;;4.56;69.38;103290.28;5080418;27;45307;-54
2022/01/21 03:37:41;;;;;;;;;15.00;7.00;;;;;4.55;68.64;103286.81;5080520;27;45295;-56
2022/01/21 03:40:07;;;;;;;;;6.50;5.50;;;;;4.54;68.95;103287.69;5080040;27;46199;-48
2022/01/21 03:42:32;;;;;;;;;11.00;5.00;;;;;4.53;68.71;103293.88;5080196;27;45422;-63
2022/01/21 03:44:58;;;;;;;;;10.75;4.75;;;;;4.52;69.43;103288.66;5080255;27;45784;-59
2022/01/21 03:47:23;;;;;;;;;11.00;7.25;;;;;4.50;69.52;103297.44;5080657;27;46010;-60
2022/01/21 03:49:58;;;;;;;;;8.00;5.00;;;;;4.50;69.88;103301.88;5079952;27;46133;-61
2022/01/21 03:52:23;;;;;;;;;10.50;6.00;;;;;4.50;69.73;103301.88;5080118;27;45500;-51
2022/01/21 03:54:49;;;;;;;;;7.25;7.25;;;;;4.49;69.26;103289.59;5080233;27;45298;-61
2022/01/21 03:57:15;;;;;;;;;12.00;6.00;;;;;4.51;68.50;103277.25;5080136;28;45468;-54
2022/01/21 03:59:40;;;;;;;;;7.75;7.75;;;;;4.73;69.26;103298.56;5079974;27;46305;-52
2022/01/21 04:02:06;;;;;;;;;7.50;7.50;;;;;4.79;69.09;103302.78;5079928;27;45524;-56
2022/01/21 04:04:32;;;;;;;;;9.50;6.25;;;;;4.83;68.46;103299.13;5080208;27;45383;-62
2022/01/21 04:06:58;;;;;;;;;8.50;7.00;;;;;4.88;68.91;103298.06;5080178;27;45433;-59
2022/01/21 04:09:23;;;;;;;;;6.50;5.50;;;;;4.93;68.20;103298.81;5079815;27;46018;-52
2022/01/21 04:11:49;;;;;;;;;8.00;5.00;;;;;4.97;67.83;103300.47;5080314;27;45164;-53
2022/01/21 04:14:15;;;;;;;;;10.50;8.00;;;;;4.99;67.72;103303.91;5080239;27;45363;-62
2022/01/21 04:16:40;;;;;;;;;8.00;6.00;;;;;5.02;68.05;103302.94;5078534;28;45472;-51
2022/01/21 04:19:05;;;;;;;;;9.50;7.00;;;;;5.02;68.24;103300.31;5079847;27;45410;-54
2022/01/21 04:21:31;;;;;;;;;6.00;5.00;;;;;5.03;67.84;103306.44;5076953;28;45450;-52
2022/01/21 04:23:57;;;;;;;;;8.50;4.75;;;;;5.04;67.63;103308.16;5079960;27;45262;-55
2022/01/21 04:26:22;;;;;;;;;5.50;5.00;;;;;5.05;68.22;103315.16;5080011;27;45469;-63
2022/01/21 04:28:48;;;;;;;;;10.75;6.00;;;;;4.91;67.33;103286.56;5077980;28;47290;-55
2022/01/21 04:31:13;;;;;;;;;10.25;5.00;;;;;5.10;67.89;103318.50;5079616;27;45399;-56
2022/01/21 04:33:38;;;;;;;;;9.50;4.75;;;;;5.11;67.77;103312.34;5079716;27;45463;-46
2022/01/21 04:36:04;;;;;;;;;6.00;4.75;;;;;5.12;67.35;103316.69;5079442;27;45469;-58
2022/01/21 04:38:30;;;;;;;;;6.00;4.00;;;;;5.11;67.22;103315.84;5079586;27;45382;-59
2022/01/21 04:47:15;;;;;;;;;6.50;4.25;;;;;5.10;67.09;103310.59;5078996;28;45307;-60
2022/01/21 04:49:09;;;;;;;;;6.00;3.50;;;;;4.99;67.98;103301.25;5079053;28;45723;-60
2022/01/21 04:51:41;;;;;;;;;8.50;4.75;;;;;5.10;67.20;103303.56;5077888;28;45265;-57
2022/01/21 04:54:06;;;;;;;;;1.25;1.25;;;;;5.12;67.48;103307.00;5078103;28;45308;-61
2022/01/21 04:56:32;;;;;;;;;8.00;6.00;;;;;5.11;67.64;103305.28;5079410;27;45397;-61
2022/01/21 04:58:57;;;;;;;;;4.00;4.00;;;;;5.09;67.20;103312.38;5078976;27;46548;-57
2022/01/21 05:01:23;;;;;;;;;9.00;5.00;;;;;5.09;67.30;103314.16;5079067;27;45173;-54
2022/01/21 05:03:49;;;;;;;;;7.25;4.25;;;;;5.10;67.56;103310.59;5079162;27;45400;-57
2022/01/21 05:06:15;;;;;;;;;12.75;6.50;;;;;5.10;68.21;103310.59;5079097;27;45365;-51
2022/01/21 05:11:10;;;;;;;;;5.25;4.50;;;;;5.13;67.83;103316.63;5079122;27;45448;-60
2022/01/21 05:13:40;;;;;;;;;11.25;7.50;;;;;5.15;67.35;103317.47;5079017;27;45223;-62
2022/01/21 05:16:17;;;;;;;;;11.00;6.00;;;;;5.17;67.90;103317.41;5078837;27;45404;-58
2022/01/21 05:18:42;;;;;;;;;9.75;7.75;;;;;5.15;67.13;103320.13;5078593;27;47440;-63
2022/01/21 05:21:07;;;;;;;;;9.00;7.50;;;;;5.22;66.92;103320.75;5078639;27;45285;-60
2022/01/21 05:23:33;;;;;;;;;9.50;7.25;;;;;5.21;67.19;103319.91;5078972;27;45319;-61
2022/01/21 05:25:58;;;;;;;;;9.25;5.00;;;;;5.21;67.37;103321.69;5079033;27;45359;-64
2022/01/21 05:28:27;;;;;;;;;8.00;5.50;;;;;5.21;67.60;103317.25;5078586;27;46068;-66
2022/01/21 05:30:52;;;;;;;;;6.50;5.00;;;;;5.19;67.56;103321.75;5078728;28;45287;-55
2022/01/21 05:33:17;;;;;;;;;6.00;6.00;;;;;5.19;67.51;103324.38;5078235;27;45324;-56
2022/01/21 05:35:43;;;;;;;;;8.00;3.50;;;;;5.16;66.98;103318.34;5077354;27;45258;-52
2022/01/21 05:38:08;;;;;;;;;12.00;5.00;;;;;5.18;67.01;103330.59;5078101;27;46089;-53
2022/01/21 05:40:34;;;;;;;;;4.50;2.00;;;;;5.18;67.69;103334.97;5078168;27;45380;-49
2022/01/21 05:42:59;;;;;;;;;8.50;5.00;;;;;5.17;67.37;103326.19;5078739;27;45298;-53
2022/01/21 05:48:09;;;;;;;;;6.75;4.75;;;;;5.17;67.25;103328.81;5078305;28;45385;-48
2022/01/21 05:50:34;;;;;;;;;7.00;6.50;;;;;5.19;67.40;103336.72;5076873;28;45346;-51
2022/01/21 05:53:04;;;;;;;;;5.25;4.00;;;;;5.14;66.84;103333.34;5078171;27;45832;-61
2022/01/21 05:55:30;;;;;;;;;7.25;4.50;;;;;5.09;67.38;103338.75;5078464;27;45433;-54
2022/01/21 05:57:55;;;;;;;;;10.25;7.00;;;;;5.06;66.99;103341.50;5077169;27;47009;-59
2022/01/21 06:00:21;;;;;;;;;10.00;6.50;;;;;5.03;67.84;103349.50;5078024;27;45438;-49
2022/01/21 06:02:47;;;;;;;;;7.00;6.00;;;;;4.95;67.41;103352.38;5078247;27;45237;-60
2022/01/21 06:05:14;;;;;;;;;4.50;4.00;;;;;4.92;68.05;103362.16;5078240;27;45199;-62
2022/01/21 06:07:40;;;;;;;;;7.25;4.00;;;;;4.89;67.68;103351.72;5077631;27;46197;-57
2022/01/21 06:10:06;;;;;;;;;9.25;4.75;;;;;4.87;67.69;103350.88;5077937;27;45327;-58
2022/01/21 06:12:31;;;;;;;;;10.25;5.00;;;;;4.84;67.58;103345.69;5077800;27;45335;-53
2022/01/21 06:14:57;;;;;;;;;5.75;4.00;;;;;4.89;67.54;103351.72;5078298;27;45352;-60
2022/01/21 06:17:22;;;;;;;;;8.25;6.00;;;;;4.91;68.48;103356.00;5076156;28;45967;-60
2022/01/21 06:19:48;;;;;;;;;11.00;7.75;;;;;4.95;67.88;103360.28;5077794;27;45362;-61
2022/01/21 06:22:15;;;;;;;;;6.50;5.00;;;;;4.97;67.92;103355.84;5077690;27;45529;-61
2022/01/21 06:24:40;;;;;;;;;5.50;4.25;;;;;4.95;68.05;103355.00;5077772;27;45632;-60
2022/01/21 06:27:05;;;;;;;;;10.00;4.00;;;;;4.96;67.36;103353.25;5077585;27;45447;-62
2022/01/21 06:29:31;;;;;;;;;8.50;4.50;;;;;4.96;67.85;103347.97;5077553;27;45363;-62
2022/01/21 06:31:56;;;;;;;;;8.25;4.25;;;;;4.94;67.90;103352.44;5078126;27;45462;-57
2022/01/21 06:34:22;;;;;;;;;8.00;4.75;;;;;4.89;67.65;103357.00;5078023;27;45363;-62
2022/01/21 06:36:48;;;;;;;;;7.50;6.50;;;;;4.86;68.04;103346.53;5077380;27;46590;-58
2022/01/21 06:39:13;;;;;;;;;6.00;4.25;;;;;4.86;67.66;103357.06;5076119;28;45501;-63
2022/01/21 06:41:40;;;;;;;;;6.00;5.50;;;;;4.84;68.60;103351.81;5077741;27;45362;-56
2022/01/21 06:44:06;;;;;;;;;5.75;4.00;;;;;4.85;68.85;103355.34;5077256;27;45386;-61
2022/01/21 06:46:32;;;;;;;;;9.50;5.00;;;;;4.81;68.18;103351.09;5076842;27;47231;-56
2022/01/21 06:48:57;;;;;;;;;6.25;4.00;;;;;4.88;67.58;103361.38;5077213;27;45398;-56
2022/01/21 06:51:23;;;;;;;;;3.25;2.00;;;;;4.91;67.74;103357.78;5077563;28;45298;-59
2022/01/21 06:53:48;;;;;;;;;7.50;5.00;;;;;4.93;68.45;103370.03;5077596;27;45299;-55
2022/01/21 06:56:14;;;;;;;;;6.50;4.00;;;;;4.87;67.94;103348.25;5076702;27;45248;-59
2022/01/21 06:58:40;;;;;;;;;7.75;2.50;;;;;4.99;68.29;103368.97;5077404;27;45186;-54
2022/01/21 07:01:05;;;;;;;;;7.75;4.00;;;;;5.04;68.04;103377.63;5077381;27;45257;-48
2022/01/21 07:03:30;;;;;;;;;5.00;5.00;;;;;5.07;67.82;103376.66;5077044;27;45324;-50
2022/01/21 07:05:56;;;;;;;;;8.25;7.00;;;;;5.08;68.00;103389.81;5076461;28;46064;-48
2022/01/21 07:08:21;;;;;;;;;5.50;5.00;;;;;5.09;67.60;103391.53;5076815;28;45498;-61
2022/01/21 07:10:47;;;;;;;;;5.25;3.50;;;;;5.11;67.46;103388.88;5077206;28;45374;-48
2022/01/21 07:13:13;;;;;;;;;11.50;7.50;;;;;5.11;67.39;103392.34;5077322;27;45294;-56
2022/01/21 07:15:38;;;;;;;;;8.00;7.25;;;;;5.13;67.93;103398.44;5077033;28;46428;-68
2022/01/21 07:18:04;;;;;;;;;10.00;4.50;;;;;5.15;67.69;103387.84;5076821;27;45415;-59
2022/01/21 07:20:29;;;;;;;;;5.50;3.75;;;;;5.13;67.07;103393.16;5076968;27;45386;-66
2022/01/21 07:22:55;;;;;;;;;9.25;3.00;;;;;5.10;67.84;103395.91;5077269;28;45249;-49
2022/01/21 07:25:20;;;;;;;;;6.50;4.50;;;;;5.12;67.42;103402.00;5076742;28;46894;-65
2022/01/21 07:27:46;;;;;;;;;7.00;5.00;;;;;5.14;67.61;103405.47;5076808;28;45371;-51
2022/01/21 07:30:13;;;;;;;;;7.00;4.00;;;;;5.17;67.90;103404.50;5076958;27;45372;-61
2022/01/21 07:32:40;;;;;;;;;2.00;2.00;;;;;5.11;67.14;103397.63;5076790;28;45296;-53
2022/01/21 07:35:08;;;;;;;;;4.75;4.75;;;;;5.12;67.81;103399.34;5076615;28;45509;-50
2022/01/21 07:37:33;;;;;;;;;5.00;5.00;;;;;5.19;67.79;103405.31;5075818;28;45387;-49
2022/01/21 07:39:59;;;;;;;;;4.75;4.75;;;;;5.16;67.94;103398.34;5075023;28;45671;-53
2022/01/21 07:42:25;;;;;;;;;8.75;5.00;;;;;5.22;67.97;103413.13;5076940;28;45297;-52
2022/01/21 07:44:50;;;;;;;;;8.50;5.00;;;;;5.22;67.60;103407.84;5074940;27;46244;-64
2022/01/21 07:47:15;;;;;;;;;5.50;5.50;;;;;5.23;67.43;103413.09;5076510;28;45321;-61
2022/01/21 07:49:42;;;;;;;;;4.00;4.00;;;;;5.23;67.11;103415.75;5076510;28;45749;-62
2022/01/21 07:52:08;;;;;;;;;9.50;6.00;;;;;5.29;67.85;103424.38;5076646;28;45411;-50
2022/01/21 07:54:34;;;;;;;;;8.50;7.00;;;;;5.29;67.16;103424.38;5109070;27;47748;-60
2022/01/21 07:57:02;;;;;;;;;8.50;8.50;;;;;5.31;66.83;103433.09;5078407;28;45459;-54
2022/01/21 07:59:28;;;;;;;;;10.25;7.50;;;;;5.32;67.26;103430.44;5079885;27;45268;-56
2022/01/21 08:01:53;;;;;;;;;9.00;7.50;;;;;5.34;67.55;103440.94;5079854;28;45393;-55
2022/01/21 08:04:18;;;;;;;;;8.25;5.00;;;;;5.36;66.89;103439.13;5079665;27;46059;-53
2022/01/21 08:06:44;;;;;;;;;10.50;7.50;;;;;5.37;67.10;103432.94;5080054;27;45625;-52
2022/01/21 08:09:09;;;;;;;;;7.25;7.00;;;;;5.36;67.43;103437.34;5079531;28;45353;-56
2022/01/21 08:11:35;;;;;;;;;6.50;6.50;;;;;5.41;67.91;103442.47;5079974;28;45283;-52
2022/01/21 08:14:00;;;;;;;;;14.50;6.75;;;;;5.47;66.88;103444.91;5079588;28;45492;-51
2022/01/21 08:16:26;;;;;;;;;8.00;5.00;;;;;5.50;67.02;103447.47;5079515;28;45389;-53
2022/01/21 08:18:54;;;;;;;;;18.00;7.25;;;;;5.58;66.97;103453.38;5079630;28;45279;-56
2022/01/21 08:21:19;;;;;;;;;10.25;6.50;;;;;5.63;67.23;103445.31;5079675;28;45264;-60
2022/01/21 08:23:46;;;;;;;;;8.25;7.00;;;;;5.66;66.59;103448.72;5078635;28;45589;-55
2022/01/21 08:26:12;;;;;;;;;8.00;4.50;;;;;5.71;66.61;103453.84;5078554;28;45311;-60
2022/01/21 08:28:37;;;;;;;;;5.00;5.00;;;;;5.72;66.53;103450.28;5078039;28;45540;-60
2022/01/21 08:31:03;;;;;;;;;12.50;7.50;;;;;5.77;66.85;103445.72;5079087;27;45570;-61
2022/01/21 08:33:28;;;;;;;;;4.50;4.50;;;;;5.81;66.24;103449.13;5078177;28;46093;-60
2022/01/21 08:35:54;;;;;;;;;11.75;7.75;;;;;5.86;66.35;103444.59;5078660;27;45396;-54
2022/01/21 08:38:21;;;;;;;;;10.25;7.50;;;;;5.86;66.32;103442.81;5078167;28;45425;-54
2022/01/21 08:40:47;;;;;;;;;13.50;7.25;;;;;5.94;66.26;103445.19;5078013;27;45422;-55
2022/01/21 08:43:13;;;;;;;;;7.75;6.75;;;;;5.98;66.00;103446.84;5078729;27;46170;-56
2022/01/21 08:45:39;;;;;;;;;8.50;7.25;;;;;6.00;66.17;103445.03;5076679;28;45446;-65
2022/01/21 08:48:05;;;;;;;;;8.00;8.00;;;;;6.01;65.83;103446.75;5078350;28;45322;-61
2022/01/21 08:50:30;;;;;;;;;11.00;9.00;;;;;6.05;65.79;103453.66;5078910;27;45377;-60
2022/01/21 08:53:07;;;;;;;;;9.00;8.75;;;;;6.07;66.02;103451.84;5077970;28;46068;-63
2022/01/21 08:55:34;;;;;;;;;10.50;5.50;;;;;6.09;65.85;103452.63;5078196;27;45297;-66
2022/01/21 08:57:59;;;;;;;;;9.00;7.50;;;;;6.13;65.62;103451.63;5078524;28;45578;-54
2022/01/21 09:00:24;;;;;;;;;5.00;4.00;;;;;6.17;65.77;103455.88;5078342;28;45526;-59
2022/01/21 09:02:51;;;;;;;;;12.50;7.25;;;;;6.22;65.57;103450.44;5078154;28;45417;-61
2022/01/21 09:05:17;;;;;;;;;10.75;8.50;;;;;6.18;65.54;103443.53;5078344;27;45413;-67
2022/01/21 09:07:42;;;;;;;;;10.50;8.00;;;;;6.24;65.46;103452.13;5077434;28;45362;-62
2022/01/21 09:10:09;;;;;;;;;20.25;9.75;;;;;6.28;65.27;103459.94;5078253;28;45442;-54
2022/01/21 09:12:35;;;;;;;;;19.75;9.75;;;;;6.31;65.59;103459.84;5078070;28;46385;-58
2022/01/21 09:15:01;;;;;;;;;9.00;5.50;;;;;6.36;65.13;103457.91;5078021;27;45374;-61
2022/01/21 09:17:27;;;;;;;;;10.00;8.00;;;;;6.43;65.44;103455.00;5077667;28;45313;-61
2022/01/21 09:19:52;;;;;;;;;14.00;6.50;;;;;6.50;64.90;103461.81;5078322;28;45355;-59
2022/01/21 09:22:18;;;;;;;;;15.00;8.00;;;;;6.54;64.77;103454.63;5077741;28;45654;-63
2022/01/21 09:24:43;;;;;;;;;16.50;9.00;;;;;6.60;64.68;103456.19;5077599;28;45230;-60
2022/01/21 09:27:09;;;;;;;;;13.25;11.00;;;;;6.65;63.95;103467.47;5077867;28;45347;-52
2022/01/21 09:29:35;;;;;;;;;19.00;8.25;;;;;6.66;64.79;103467.41;5077803;28;45432;-58
2022/01/21 09:32:02;;;;;;;;;11.25;8.00;;;;;6.68;64.67;103475.28;5077699;28;46032;-63
2022/01/21 09:34:29;;;;;;;;;12.25;9.00;;;;;6.70;64.29;103473.44;5077564;28;45464;-66
2022/01/21 09:37:00;;;;;;;;;11.25;10.25;;;;;6.70;64.68;103482.28;5077348;28;45408;-53
2022/01/21 09:39:27;;;;;;;;;12.00;11.00;;;;;6.67;64.46;103474.44;5077827;28;45356;-56
2022/01/21 09:41:57;;;;;;;;;8.50;8.00;;;;;6.68;64.61;103480.59;5077586;27;46184;-59
2022/01/21 09:44:22;;;;;;;;;12.75;8.50;;;;;6.65;63.84;103488.63;5077263;27;45365;-65
2022/01/21 09:46:50;;;;;;;;;11.25;7.00;;;;;6.67;64.32;103492.09;5110720;27;45714;-52
2022/01/21 09:52:01;;;;;;;;;14.75;8.00;;;;;6.66;64.37;103504.44;5077146;27;45368;-51
2022/01/21 09:54:32;;;;;;;;;15.50;10.50;;;;;6.67;64.44;103515.91;5077131;28;45415;-48
2022/01/21 09:56:59;;;;;;;;;16.50;11.00;;;;;6.62;64.43;103501.97;5077682;28;45434;-52
2022/01/21 09:59:28;;;;;;;;;14.50;10.50;;;;;6.69;64.53;103517.56;5077505;28;45169;-55
2022/01/21 10:02:05;;;;;;;;;9.00;9.00;;;;;6.67;64.34;103500.88;5077884;28;45376;-65
2022/01/21 10:04:37;;;;;;;;;8.00;8.00;;;;;6.68;64.22;103510.53;5080085;27;45396;-61
2022/01/21 10:07:04;;;;;;;;;9.00;8.00;;;;;6.71;64.41;103518.38;5080838;27;45397;-51
2022/01/21 10:09:30;;;;;;;;;15.50;11.75;;;;;6.78;63.65;103513.72;5079449;27;45246;-54
2022/01/21 10:11:57;;;;;;;;;12.25;10.50;;;;;6.81;63.58;103513.63;5078213;27;45463;-66
2022/01/21 10:14:25;;;;;;;;;12.50;9.50;;;;;6.84;63.81;103518.81;5078147;27;45397;-67
2022/01/21 10:16:52;;;;;;;;;22.25;9.00;;;;;6.86;63.66;103510.81;5079942;28;45717;-50
2022/01/21 10:19:31;;;;;;;;;13.00;10.50;;;;;6.93;63.42;103517.63;5078939;28;45369;-52
2022/01/21 10:22:01;;;;;;;;;10.75;7.00;;;;;6.99;63.53;103520.03;5078301;28;46260;-66
2022/01/21 10:24:28;;;;;;;;;9.25;8.00;;;;;7.07;62.94;103517.97;5078075;27;45420;-59
2022/01/21 10:26:55;;;;;;;;;14.25;11.50;;;;;7.14;63.53;103515.97;5077350;28;45446;-49
2022/01/21 10:29:22;;;;;;;;;12.00;7.75;;;;;7.25;62.73;103514.66;5076839;27;45366;-52
2022/01/21 10:32:07;;;;;;;;;12.00;8.00;;;;;7.32;62.19;103514.41;5076856;28;46375;-50
2022/01/21 10:34:38;;;;;;;;;12.25;9.00;;;;;7.39;62.33;103521.22;5076859;28;45430;-61
2022/01/21 10:37:27;;;;;;;;;11.25;9.75;;;;;7.42;61.69;103511.38;5076840;27;45501;-65
2022/01/21 10:40:06;;;;;;;;;13.50;10.00;;;;;7.54;61.82;103510.03;5076687;27;45410;-54
2022/01/21 10:42:31;;;;;;;;;13.00;10.00;;;;;7.64;62.34;103513.19;5076220;28;45472;-55
2022/01/21 10:44:59;;;;;;;;;17.00;11.50;;;;;7.71;61.51;103509.34;5076253;28;45434;-56
2022/01/21 10:47:30;;;;;;;;;22.00;12.25;;;;;7.71;61.51;103497.00;5077072;28;45377;-66
2022/01/21 10:50:14;;;;;;;;;13.00;10.50;;;;;7.72;61.55;103514.63;5076617;28;45375;-50
2022/01/21 10:52:53;;;;;;;;;20.00;14.75;;;;;7.69;61.47;103508.56;5076399;28;46253;-51
2022/01/21 10:55:37;;;;;;;;;16.25;10.25;;;;;7.65;61.61;103507.81;5076168;28;45341;-53
2022/01/21 10:58:09;;;;;;;;;15.00;11.50;;;;;7.61;61.56;103502.72;5076264;27;45442;-59
2022/01/21 11:00:56;;;;;;;;;13.00;9.00;;;;;7.57;61.73;103490.50;5076807;27;45280;-51
2022/01/21 11:03:21;;;;;;;;;15.00;13.00;;;;;7.59;62.32;103505.44;5076354;28;45976;-52
2022/01/21 11:05:48;;;;;;;;;16.75;13.00;;;;;7.59;61.83;103492.19;5076300;28;45363;-47
2022/01/21 11:08:15;;;;;;;;;12.00;8.75;;;;;7.61;61.97;103497.41;5076155;27;45511;-51
2022/01/21 11:10:46;;;;;;;;;15.75;14.00;;;;;7.61;61.30;103498.28;5076505;27;45395;-46
2022/01/21 11:13:18;;;;;;;;;11.50;9.75;;;;;7.60;62.36;103496.56;5075973;27;45375;-51
2022/01/21 11:15:48;;;;;;;;;13.00;11.50;;;;;7.61;61.91;103489.47;5075821;27;45453;-50
2022/01/21 11:18:17;;;;;;;;;16.75;15.00;;;;;7.61;61.94;103494.75;5076108;27;45416;-56
2022/01/21 11:20:47;;;;;;;;;9.00;8.00;;;;;7.60;62.14;103493.91;5076459;27;45384;-54
2022/01/21 11:23:12;;;;;;;;;9.00;9.00;;;;;7.41;62.04;103463.75;5075672;28;46075;-58
2022/01/21 11:25:54;;;;;;;;;11.00;8.25;;;;;7.60;61.66;103493.03;5075841;28;45332;-50
2022/01/21 11:28:24;;;;;;;;;8.25;8.25;;;;;7.61;62.31;103487.66;5108610;27;45320;-49
2022/01/21 11:30:51;;;;;;;;;16.75;12.50;;;;;7.70;61.80;103491.75;5076866;28;45367;-45
2022/01/21 11:33:18;;;;;;;;;11.50;8.75;;;;;7.77;62.11;103495.88;5078039;28;47671;-48
2022/01/21 11:35:44;;;;;;;;;13.50;12.50;;;;;7.84;61.52;103491.22;5079285;28;45476;-53
2022/01/21 11:38:11;;;;;;;;;17.25;11.00;;;;;7.90;61.19;103493.59;5080239;28;45486;-53
2022/01/21 11:40:38;;;;;;;;;15.50;8.75;;;;;7.89;61.27;103468.03;5080558;27;45522;-65
2022/01/21 11:43:06;;;;;;;;;17.00;12.00;;;;;8.00;61.18;103481.69;5112640;27;45480;-63
2022/01/21 11:45:54;;;;;;;;;16.50;13.00;;;;;7.98;61.16;103465.00;5079762;28;45280;-54
2022/01/21 11:50:52;;;;;;;;;15.50;11.50;;;;;8.18;61.19;103474.78;5081870;27;45527;-48
2022/01/21 11:53:46;;;;;;;;;21.50;13.50;;;;;8.28;60.35;103480.56;5099182;27;46079;-51
2022/01/21 11:56:42;;;;;;;;;18.75;14.75;;;;;8.30;60.36;103473.38;5099318;27;45421;-58
2022/01/21 11:59:27;;;;;;;;;18.75;14.75;;;;;8.34;60.32;103481.16;5099492;27;45440;-56
2022/01/21 12:01:54;;;;;;;;;13.25;13.00;;;;;8.42;60.62;103470.25;5100084;27;45388;-47
2022/01/21 12:05:01;;;;;;;;;12.75;8.50;;;;;8.54;59.89;103475.03;5099216;27;45622;-51
2022/01/21 12:07:44;;;;;;;;;13.50;10.50;;;;;8.60;59.86;103480.09;5099658;27;45492;-55
2022/01/21 12:10:13;;;;;;;;;14.00;11.50;;;;;8.62;59.46;103472.03;5099685;27;45195;-61
2022/01/21 12:13:05;;;;;;;;;14.00;13.00;;;;;8.66;60.53;103476.28;5099391;27;45397;-48
2022/01/21 12:20:47;;;;;;;;;14.00;9.75;;;;;8.57;59.79;103468.75;5099503;27;45323;-49
2022/01/21 12:23:18;;;;;;;;;14.25;13.00;;;;;8.55;60.61;103468.78;5099613;27;45496;-49
2022/01/21 12:26:14;;;;;;;;;12.00;11.25;;;;;8.56;60.50;103464.38;5097348;27;46432;-48
2022/01/21 12:28:42;;;;;;;;;13.25;10.25;;;;;8.54;59.13;103456.44;5099055;27;45413;-60
2022/01/21 12:31:10;;;;;;;;;14.25;9.00;;;;;8.53;58.86;103459.19;5099178;27;45474;-50
2022/01/21 12:34:12;;;;;;;;;9.75;8.25;;;;;8.54;59.32;103444.97;5099548;27;45293;-52
2022/01/21 12:36:44;;;;;;;;;16.75;11.75;;;;;8.57;58.49;103444.84;5098682;27;45411;-56